createdAt,value
2018-07-12T00:00:15.278Z,16.67
2018-07-12T00:02:43.005Z,17.73
2018-07-12T00:05:10.756Z,15.83
2018-07-12T00:07:38.484Z,15.80
2018-07-12T00:10:06.247Z,18.17
2018-07-12T00:12:33.999Z,18.90
2018-07-12T00:15:01.760Z,17.40
2018-07-12T00:17:29.473Z,16.63
2018-07-12T00:19:57.200Z,16.60
2018-07-12T00:22:24.929Z,16.90
2018-07-12T00:24:52.661Z,17.13
2018-07-12T00:27:20.744Z,19.63
2018-07-12T00:29:48.431Z,18.73
2018-07-12T00:32:16.204Z,19.80
2018-07-12T00:34:44.017Z,18.43
2018-07-12T00:37:11.743Z,21.20
2018-07-12T00:39:39.476Z,19.87
2018-07-12T00:42:07.227Z,18.73
2018-07-12T00:44:34.945Z,16.40
2018-07-12T00:47:02.668Z,17.67
2018-07-12T00:49:30.429Z,21.83
2018-07-12T00:51:58.195Z,19.13
2018-07-12T00:54:25.927Z,22.20
2018-07-12T00:56:54.186Z,23.07
2018-07-12T00:59:21.922Z,24.20
2018-07-12T01:01:49.660Z,20.97
2018-07-12T01:04:17.435Z,21.00
2018-07-12T01:06:45.152Z,20.60
2018-07-12T01:09:12.904Z,19.93
2018-07-12T01:11:40.705Z,20.53
2018-07-12T01:14:08.432Z,20.40
2018-07-12T01:16:36.179Z,20.40
2018-07-12T01:19:03.951Z,19.23
2018-07-12T01:21:35.633Z,20.77
2018-07-12T01:24:03.438Z,21.33
2018-07-12T01:26:31.229Z,18.90
2018-07-12T01:28:59.070Z,19.47
2018-07-12T01:31:26.916Z,22.97
2018-07-12T01:33:54.984Z,21.73
2018-07-12T01:36:23.180Z,22.80
2018-07-12T01:38:50.939Z,21.47
2018-07-12T01:41:18.648Z,25.57
2018-07-12T01:43:46.453Z,22.53
2018-07-12T01:46:14.192Z,22.03
2018-07-12T01:48:41.915Z,21.83
2018-07-12T01:51:09.657Z,21.77
2018-07-12T01:53:37.383Z,21.90
2018-07-12T01:56:05.452Z,21.40
2018-07-12T01:58:33.251Z,26.00
2018-07-12T02:01:00.984Z,25.00
2018-07-12T02:03:28.740Z,28.07
2018-07-12T02:05:56.472Z,24.27
2018-07-12T02:08:24.569Z,23.57
2018-07-12T02:10:52.287Z,26.33
2018-07-12T02:13:19.995Z,30.93
2018-07-12T02:15:47.795Z,33.03
2018-07-12T02:18:15.527Z,29.73
2018-07-12T02:20:43.557Z,34.33
2018-07-12T02:23:11.311Z,28.97
2018-07-12T02:25:39.106Z,29.03
2018-07-12T02:28:06.887Z,28.40
2018-07-12T02:30:34.627Z,31.07
2018-07-12T02:33:02.381Z,30.63
2018-07-12T02:35:30.128Z,30.37
2018-07-12T02:37:57.881Z,33.87
2018-07-12T02:40:25.928Z,33.93
2018-07-12T02:42:53.653Z,30.03
2018-07-12T02:45:22.265Z,26.77
2018-07-12T02:47:50.097Z,28.00
2018-07-12T02:50:17.874Z,33.47
2018-07-12T02:52:45.649Z,27.13
2018-07-12T02:55:13.470Z,25.00
2018-07-12T02:57:41.192Z,24.77
2018-07-12T03:00:08.977Z,28.77
2018-07-12T03:02:36.776Z,36.40
2018-07-12T03:05:04.507Z,34.60
2018-07-12T03:07:32.269Z,32.87
2018-07-12T03:10:00.011Z,32.23
2018-07-12T03:12:27.749Z,33.13
2018-07-12T03:14:57.088Z,33.10
2018-07-12T03:17:24.829Z,30.63
2018-07-12T03:19:52.609Z,33.37
2018-07-12T03:22:20.463Z,30.93
2018-07-12T03:24:48.196Z,35.47
2018-07-12T03:27:15.965Z,45.30
2018-07-12T03:29:43.688Z,32.17
2018-07-12T03:32:11.429Z,31.53
2018-07-12T03:34:39.197Z,33.43
2018-07-12T03:37:07.331Z,45.10
2018-07-12T03:39:35.992Z,30.47
2018-07-12T03:42:15.256Z,33.20
2018-07-12T03:44:43.018Z,30.20
2018-07-12T03:47:10.729Z,29.70
2018-07-12T03:49:38.749Z,31.67
2018-07-12T03:52:06.489Z,27.73
2018-07-12T03:54:34.270Z,27.07
2018-07-12T03:57:04.329Z,31.43
2018-07-12T03:59:32.057Z,28.10
2018-07-12T04:01:59.800Z,27.07
2018-07-12T04:04:27.608Z,28.23
2018-07-12T04:06:55.393Z,24.50
2018-07-12T04:09:23.117Z,22.73
2018-07-12T04:11:50.868Z,28.77
2018-07-12T04:14:18.747Z,30.97
2018-07-12T04:16:46.569Z,32.47
2018-07-12T04:19:14.325Z,27.67
2018-07-12T04:21:42.064Z,25.40
2018-07-12T04:24:09.816Z,28.47
2018-07-12T04:26:37.575Z,27.03
2018-07-12T04:29:05.376Z,26.27
2018-07-12T04:31:33.184Z,25.33
2018-07-12T04:34:00.963Z,25.47
2018-07-12T04:36:28.704Z,26.47
2018-07-12T04:38:56.448Z,25.87
2018-07-12T04:41:24.189Z,28.27
2018-07-12T04:43:51.973Z,25.63
2018-07-12T04:46:19.716Z,27.77
2018-07-12T04:48:47.831Z,27.10
2018-07-12T04:51:15.662Z,26.00
2018-07-12T04:53:43.371Z,26.33
2018-07-12T04:56:11.172Z,24.77
2018-07-12T04:58:38.939Z,23.40
2018-07-12T05:01:06.634Z,23.90
2018-07-12T05:03:34.330Z,23.13
2018-07-12T05:06:02.080Z,23.77
2018-07-12T05:08:29.861Z,20.77
2018-07-12T05:10:57.630Z,21.87
2018-07-12T05:13:25.347Z,20.27
2018-07-12T05:15:53.125Z,20.87
2018-07-12T05:18:21.859Z,20.33
2018-07-12T05:20:49.614Z,20.43
2018-07-12T05:23:17.353Z,19.27
2018-07-12T05:25:45.429Z,19.20
2018-07-12T05:28:13.192Z,20.30
2018-07-12T05:30:40.976Z,19.17
2018-07-12T05:33:09.062Z,18.60
2018-07-12T05:35:38.439Z,18.40
2018-07-12T05:38:07.836Z,16.53
2018-07-12T05:40:37.200Z,19.13
2018-07-12T05:43:06.636Z,17.50
2018-07-12T05:45:36.007Z,18.40
2018-07-12T05:48:05.596Z,19.80
2018-07-12T05:50:36.523Z,17.83
2018-07-12T05:53:06.428Z,17.87
2018-07-12T05:55:35.764Z,18.37
2018-07-12T05:58:05.194Z,18.13
2018-07-12T06:00:34.905Z,16.63
2018-07-12T06:03:04.596Z,18.83
2018-07-12T06:05:33.995Z,18.37
2018-07-12T06:08:03.397Z,17.47
2018-07-12T06:10:32.713Z,16.70
2018-07-12T06:13:02.215Z,18.30
2018-07-12T06:15:31.756Z,17.77
2018-07-12T06:18:01.363Z,16.80
2018-07-12T06:20:30.844Z,18.40
2018-07-12T06:23:00.347Z,19.10
2018-07-12T06:25:29.759Z,18.57
2018-07-12T06:27:59.137Z,17.67
2018-07-12T06:30:28.601Z,15.87
2018-07-12T06:32:58.069Z,15.70
2018-07-12T06:35:27.547Z,15.40
2018-07-12T06:37:57.064Z,13.40
2018-07-12T06:40:26.523Z,14.57
2018-07-12T06:42:55.947Z,15.00
2018-07-12T06:45:25.296Z,16.43
2018-07-12T06:47:54.685Z,15.70
2018-07-12T06:50:24.155Z,16.07
2018-07-12T06:52:53.933Z,14.57
2018-07-12T06:55:23.243Z,13.50
2018-07-12T06:57:52.561Z,13.43
2018-07-12T07:00:21.995Z,14.47
2018-07-12T07:02:51.827Z,14.13
2018-07-12T07:05:21.152Z,40.60
2018-07-12T07:07:50.697Z,11.43
2018-07-12T07:10:20.081Z,12.90
2018-07-12T07:12:49.495Z,11.17
2018-07-12T07:15:19.925Z,10.63
2018-07-12T07:17:49.676Z,9.83
2018-07-12T07:20:19.033Z,9.57
2018-07-12T07:22:48.356Z,9.73
2018-07-12T07:25:17.756Z,10.23
2018-07-12T07:27:47.149Z,9.10
2018-07-12T07:30:16.561Z,8.73
2018-07-12T07:32:45.873Z,7.50
2018-07-12T07:35:17.837Z,8.33
2018-07-12T07:37:47.192Z,7.17
2018-07-12T07:40:16.619Z,7.43
2018-07-12T07:42:46.057Z,7.27
2018-07-12T07:45:15.450Z,7.20
2018-07-12T07:47:58.358Z,7.07
2018-07-12T07:50:27.865Z,6.43
2018-07-12T07:52:57.456Z,6.60
2018-07-12T07:55:26.821Z,6.40
2018-07-12T07:57:56.227Z,5.60
2018-07-12T08:00:26.726Z,6.43
2018-07-12T08:02:56.116Z,6.20
2018-07-12T08:05:25.893Z,6.30
2018-07-12T08:07:55.259Z,5.87
2018-07-12T08:10:38.567Z,5.77
2018-07-12T08:13:08.193Z,6.23
2018-07-12T08:15:38.987Z,5.77
2018-07-12T08:18:08.377Z,6.00
2018-07-12T08:20:37.766Z,5.70
2018-07-12T08:23:07.365Z,6.33
2018-07-12T08:25:36.767Z,5.53
2018-07-12T08:28:29.976Z,5.87
2018-07-12T08:31:02.532Z,5.97
2018-07-12T08:33:31.929Z,6.03
2018-07-12T08:36:01.293Z,5.90
2018-07-12T08:38:30.713Z,6.90
2018-07-12T08:41:00.191Z,5.93
2018-07-12T08:43:29.809Z,6.13
2018-07-12T08:45:59.370Z,6.47
2018-07-12T08:48:28.847Z,6.37
2018-07-12T08:51:00.982Z,5.90
2018-07-12T08:53:30.460Z,6.37
2018-07-12T08:55:59.945Z,6.43
2018-07-12T08:58:29.708Z,6.50
2018-07-12T09:00:59.151Z,7.30
2018-07-12T09:03:28.548Z,6.77
2018-07-12T09:05:58.022Z,6.40
2018-07-12T09:08:27.372Z,6.87
2018-07-12T09:10:56.693Z,5.77
2018-07-12T09:13:26.167Z,7.07
2018-07-12T09:15:55.613Z,6.27
2018-07-12T09:18:25.033Z,6.13
2018-07-12T09:20:54.430Z,6.50
2018-07-12T09:23:23.873Z,7.05
2018-07-12T09:25:53.313Z,7.00
2018-07-12T09:28:22.696Z,6.30
2018-07-12T09:30:52.014Z,6.13
2018-07-12T09:33:21.332Z,5.90
2018-07-12T09:35:50.725Z,5.83
2018-07-12T09:38:53.116Z,5.57
2018-07-12T09:41:24.381Z,5.47
2018-07-12T09:43:54.108Z,4.80
2018-07-12T09:46:23.393Z,4.70
2018-07-12T09:48:53.243Z,4.23
2018-07-12T09:51:22.626Z,5.40
2018-07-12T09:53:51.904Z,5.20
2018-07-12T09:56:21.354Z,5.33
2018-07-12T09:58:50.754Z,5.40
2018-07-12T10:01:25.344Z,4.33
2018-07-12T10:03:54.947Z,4.50
2018-07-12T10:06:26.093Z,5.27
2018-07-12T10:08:57.019Z,4.90
2018-07-12T10:11:31.616Z,4.93
2018-07-12T10:14:06.051Z,4.33
2018-07-12T10:16:40.367Z,4.93
2018-07-12T10:19:09.626Z,4.70
2018-07-12T10:21:38.882Z,4.70
2018-07-12T10:24:08.547Z,4.57
2018-07-12T10:26:37.855Z,4.97
2018-07-12T10:29:10.987Z,4.67
2018-07-12T10:31:43.462Z,4.43
2018-07-12T10:34:13.032Z,4.90
2018-07-12T10:36:42.319Z,4.37
2018-07-12T10:39:11.682Z,4.83
2018-07-12T10:41:40.971Z,5.17
2018-07-12T10:44:10.244Z,5.10
2018-07-12T10:46:39.434Z,4.07
2018-07-12T10:49:08.758Z,5.03
2018-07-12T10:51:39.096Z,5.03
2018-07-12T10:54:08.443Z,5.23
2018-07-12T10:56:37.704Z,4.90
2018-07-12T10:59:07.071Z,5.03
2018-07-12T11:01:36.369Z,6.77
2018-07-12T11:04:06.006Z,4.70
2018-07-12T11:06:35.223Z,4.93
2018-07-12T11:09:06.049Z,3.87
2018-07-12T11:11:38.579Z,4.23
2018-07-12T11:14:08.080Z,4.00
2018-07-12T11:16:37.343Z,4.13
2018-07-12T11:19:07.324Z,4.47
2018-07-12T11:21:36.659Z,4.70
2018-07-12T11:24:05.898Z,4.33
2018-07-12T11:26:35.150Z,4.03
2018-07-12T11:29:04.503Z,4.53
2018-07-12T11:31:33.773Z,4.60
2018-07-12T11:34:03.056Z,4.60
2018-07-12T11:36:32.359Z,4.40
2018-07-12T11:39:02.095Z,4.40
2018-07-12T11:41:31.409Z,4.43
2018-07-12T11:44:00.758Z,4.40
2018-07-12T11:46:30.107Z,3.83
2018-07-12T11:48:59.427Z,4.07
2018-07-12T11:51:28.747Z,4.43
2018-07-12T11:53:58.120Z,3.83
2018-07-12T11:56:27.420Z,3.93
2018-07-12T11:58:56.782Z,4.80
2018-07-12T12:01:26.157Z,4.33
2018-07-12T12:03:55.506Z,4.43
2018-07-12T12:06:25.219Z,4.50
2018-07-12T12:08:54.496Z,4.03
2018-07-12T12:11:24.203Z,3.83
2018-07-12T12:13:53.499Z,4.10
2018-07-12T12:16:22.845Z,4.00
2018-07-12T12:18:53.181Z,3.80
2018-07-12T12:21:22.448Z,4.37
2018-07-12T12:23:51.735Z,4.63
2018-07-12T12:26:24.342Z,4.03
2018-07-12T12:28:53.702Z,5.33
2018-07-12T12:31:22.977Z,6.23
2018-07-12T12:33:52.315Z,6.03
2018-07-12T12:36:22.638Z,6.37
2018-07-12T12:38:52.411Z,6.03
2018-07-12T12:41:21.654Z,6.17
2018-07-12T12:43:51.038Z,7.07
2018-07-12T12:46:20.379Z,7.57
2018-07-12T12:48:51.703Z,6.73
2018-07-12T12:51:20.987Z,6.83
2018-07-12T12:53:50.329Z,6.97
2018-07-12T12:56:19.623Z,6.50
2018-07-12T12:58:48.998Z,7.10
2018-07-12T13:01:18.415Z,7.30
2018-07-12T13:03:48.800Z,7.37
2018-07-12T13:06:18.119Z,6.97
2018-07-12T13:08:47.459Z,5.80
2018-07-12T13:11:16.746Z,5.70
2018-07-12T13:13:46.627Z,5.80
2018-07-12T13:16:16.159Z,6.40
2018-07-12T13:18:45.500Z,5.63
2018-07-12T13:21:14.775Z,5.37
2018-07-12T13:23:44.084Z,4.87
2018-07-12T13:26:14.455Z,5.37
2018-07-12T13:28:43.826Z,5.20
2018-07-12T13:31:13.146Z,5.43
2018-07-12T13:33:42.431Z,4.53
2018-07-12T13:36:11.719Z,5.37
2018-07-12T13:38:41.062Z,6.17
2018-07-12T13:41:10.545Z,5.73
2018-07-12T13:43:39.905Z,5.83
2018-07-12T13:46:09.151Z,6.33
2018-07-12T13:48:42.055Z,5.40
2018-07-12T13:51:11.451Z,5.63
2018-07-12T13:53:41.043Z,5.40
2018-07-12T13:56:10.631Z,4.80
2018-07-12T13:58:39.926Z,4.63
2018-07-12T14:01:09.280Z,4.00
2018-07-12T14:03:38.583Z,4.57
2018-07-12T14:06:07.839Z,3.93
2018-07-12T14:08:37.148Z,4.20
2018-07-12T14:11:06.555Z,3.90
2018-07-12T14:13:35.899Z,3.23
2018-07-12T14:16:05.198Z,3.50
2018-07-12T14:18:44.235Z,3.80
2018-07-12T14:21:18.894Z,3.20
2018-07-12T14:23:48.263Z,2.90
2018-07-12T14:26:19.607Z,2.90
2018-07-12T14:28:51.063Z,3.00
2018-07-12T14:31:20.564Z,3.40
2018-07-12T14:33:56.505Z,3.00
2018-07-12T14:36:30.369Z,3.93
2018-07-12T14:39:01.831Z,3.90
2018-07-12T14:41:32.514Z,3.63
2018-07-12T14:44:07.254Z,4.03
2018-07-12T14:46:40.248Z,4.30
2018-07-12T14:49:10.238Z,4.17
2018-07-12T14:51:39.635Z,5.20
2018-07-12T14:54:10.967Z,5.33
2018-07-12T14:56:41.012Z,4.57
2018-07-12T14:59:33.424Z,4.23
2018-07-12T15:02:02.811Z,5.10
2018-07-12T15:04:33.072Z,5.57
2018-07-12T15:07:04.383Z,5.27
2018-07-12T15:09:38.564Z,5.53
2018-07-12T15:12:11.960Z,5.20
2018-07-12T15:14:41.378Z,5.23
2018-07-12T15:17:10.769Z,14.43
2018-07-12T15:19:40.155Z,5.47
2018-07-12T15:22:09.448Z,5.97
2018-07-12T15:24:38.719Z,5.77
2018-07-12T15:27:08.075Z,5.93
2018-07-12T15:29:37.494Z,5.90
2018-07-12T15:32:06.811Z,6.40
2018-07-12T15:34:37.153Z,6.33
2018-07-12T15:37:06.516Z,6.93
2018-07-12T15:39:35.840Z,6.93
2018-07-12T15:42:06.303Z,7.07
2018-07-12T15:44:35.551Z,6.63
2018-07-12T15:47:07.100Z,8.13
2018-07-12T15:49:36.491Z,10.67
2018-07-12T15:52:05.865Z,9.33
2018-07-12T15:54:35.177Z,7.97
2018-07-12T15:57:04.484Z,10.40
2018-07-12T15:59:33.906Z,9.73
2018-07-12T16:02:03.361Z,7.87
2018-07-12T16:04:32.630Z,7.90
2018-07-12T16:07:01.921Z,8.77
2018-07-12T16:09:31.318Z,8.57
2018-07-12T16:12:01.257Z,7.87
2018-07-12T16:14:30.587Z,6.80
2018-07-12T16:17:00.271Z,6.97
2018-07-12T16:19:29.597Z,7.10
2018-07-12T16:21:59.159Z,7.00
2018-07-12T16:24:28.463Z,6.60
2018-07-12T16:26:57.826Z,7.10
2018-07-12T16:29:27.331Z,6.43
2018-07-12T16:31:57.348Z,6.87
2018-07-12T16:34:26.674Z,5.73
2018-07-12T16:36:55.980Z,5.60
2018-07-12T16:39:25.272Z,5.37
2018-07-12T16:41:54.640Z,5.47
2018-07-12T16:44:23.974Z,6.30
2018-07-12T16:46:53.948Z,6.97
2018-07-12T16:49:23.256Z,7.23
2018-07-12T16:51:52.516Z,6.20
2018-07-12T16:54:21.918Z,6.00
2018-07-12T16:56:51.340Z,6.07
2018-07-12T16:59:20.639Z,6.17
2018-07-12T17:01:49.972Z,5.63
2018-07-12T17:04:19.412Z,5.87
2018-07-12T17:06:48.769Z,6.07
2018-07-12T17:09:18.163Z,5.97
2018-07-12T17:11:47.517Z,6.00
2018-07-12T17:14:16.805Z,6.63
2018-07-12T17:16:46.235Z,5.50
2018-07-12T17:19:15.507Z,5.00
2018-07-12T17:21:44.739Z,4.60
2018-07-12T17:24:13.955Z,5.57
2018-07-12T17:26:43.555Z,8.00
2018-07-12T17:29:12.965Z,5.03
2018-07-12T17:31:46.291Z,4.60
2018-07-12T17:34:16.173Z,4.73
2018-07-12T17:36:45.971Z,3.73
2018-07-12T17:39:15.896Z,3.73
2018-07-12T17:41:45.230Z,3.70
2018-07-12T17:44:14.657Z,4.13
2018-07-12T17:46:45.440Z,3.70
2018-07-12T17:49:15.624Z,4.43
2018-07-12T17:51:45.005Z,3.57
2018-07-12T17:54:14.270Z,3.67
2018-07-12T17:56:43.554Z,3.73
2018-07-12T17:59:14.881Z,4.27
2018-07-12T18:01:44.308Z,4.33
2018-07-12T18:04:13.631Z,4.77
2018-07-12T18:06:42.902Z,5.17
2018-07-12T18:09:12.223Z,4.60
2018-07-12T18:11:41.695Z,4.10
2018-07-12T18:14:11.031Z,4.77
2018-07-12T18:16:41.355Z,5.33
2018-07-12T18:19:10.705Z,5.27
2018-07-12T18:21:40.013Z,5.73
2018-07-12T18:24:09.319Z,5.40
2018-07-12T18:26:38.680Z,4.33
2018-07-12T18:29:09.092Z,4.33
2018-07-12T18:31:39.083Z,3.93
2018-07-12T18:34:08.472Z,4.30
2018-07-12T18:36:37.768Z,3.60
2018-07-12T18:39:08.959Z,4.10
2018-07-12T18:41:38.660Z,4.80
2018-07-12T18:44:07.992Z,4.83
2018-07-12T18:46:37.347Z,4.20
2018-07-12T18:49:07.049Z,4.33
2018-07-12T18:51:36.351Z,4.17
2018-07-12T18:54:05.683Z,4.17
2018-07-12T18:56:35.015Z,4.50
2018-07-12T18:59:04.475Z,5.60
2018-07-12T19:01:33.844Z,5.37
2018-07-12T19:04:03.183Z,5.60
2018-07-12T19:06:32.630Z,6.00
2018-07-12T19:09:02.331Z,6.47
2018-07-12T19:11:31.651Z,6.60
2018-07-12T19:14:00.986Z,7.23
2018-07-12T19:16:30.292Z,6.63
2018-07-12T19:18:59.598Z,6.13
2018-07-12T19:21:28.812Z,6.80
2018-07-12T19:23:58.132Z,7.00
2018-07-12T19:26:27.503Z,6.57
2018-07-12T19:28:56.799Z,6.53
2018-07-12T19:31:26.132Z,6.43
2018-07-12T19:33:55.386Z,7.83
2018-07-12T19:36:29.204Z,6.50
2018-07-12T19:38:58.456Z,6.20
2018-07-12T19:41:27.863Z,6.43
2018-07-12T19:43:57.247Z,6.80
2018-07-12T19:46:26.606Z,5.93
2018-07-12T19:48:56.172Z,5.80
2018-07-12T19:51:25.503Z,6.53
2018-07-12T19:53:55.024Z,7.20
2018-07-12T19:56:24.378Z,23.47
2018-07-12T19:58:53.727Z,8.03
2018-07-12T20:01:23.219Z,7.07
2018-07-12T20:03:52.610Z,5.57
2018-07-12T20:06:21.916Z,6.07
2018-07-12T20:08:51.283Z,6.00
2018-07-12T20:11:20.563Z,6.53
2018-07-12T20:13:49.957Z,7.57
2018-07-12T20:16:19.432Z,7.80
2018-07-12T20:18:48.853Z,7.53
2018-07-12T20:21:18.123Z,8.00
2018-07-12T20:23:47.474Z,7.53
2018-07-12T20:26:16.763Z,6.90
2018-07-12T20:28:46.062Z,7.77
2018-07-12T20:31:15.412Z,8.23
2018-07-12T20:33:48.198Z,7.00
2018-07-12T20:36:17.759Z,8.33
2018-07-12T20:38:47.022Z,7.33
2018-07-12T20:41:16.323Z,7.43
2018-07-12T20:43:45.606Z,7.53
2018-07-12T20:46:14.936Z,7.73
2018-07-12T20:48:44.336Z,6.60
2018-07-12T20:51:13.632Z,6.87
2018-07-12T20:53:42.927Z,7.40
2018-07-12T20:56:12.235Z,7.03
2018-07-12T20:58:41.551Z,7.30
2018-07-12T21:01:14.711Z,7.27
2018-07-12T21:03:44.049Z,6.50
2018-07-12T21:06:15.471Z,6.40
2018-07-12T21:08:44.724Z,5.97
2018-07-12T21:11:14.075Z,6.30
2018-07-12T21:13:43.383Z,6.50
2018-07-12T21:16:15.079Z,7.47
2018-07-12T21:18:44.339Z,5.70
2018-07-12T21:21:13.642Z,5.87
2018-07-12T21:23:44.088Z,5.40
2018-07-12T21:26:13.384Z,6.40
2018-07-12T21:28:42.654Z,5.30
2018-07-12T21:31:12.012Z,6.10
2018-07-12T21:33:41.441Z,5.50
2018-07-12T21:36:10.811Z,6.00
2018-07-12T21:38:40.434Z,5.77
2018-07-12T21:41:10.160Z,5.73
2018-07-12T21:43:39.451Z,5.90
2018-07-12T21:46:09.083Z,6.03
2018-07-12T21:48:38.421Z,6.03
2018-07-12T21:51:07.746Z,5.37
2018-07-12T21:53:37.280Z,5.80
2018-07-12T21:56:06.601Z,5.37
2018-07-12T21:58:35.964Z,5.30
2018-07-12T22:01:09.287Z,5.97
2018-07-12T22:03:38.698Z,6.40
2018-07-12T22:06:08.007Z,6.00
2018-07-12T22:08:44.888Z,6.00
2018-07-12T22:11:14.163Z,6.57
2018-07-12T22:13:43.712Z,5.80
2018-07-12T22:16:14.251Z,6.87
2018-07-12T22:18:43.640Z,5.93
2018-07-12T22:21:13.205Z,7.80
2018-07-12T22:23:46.564Z,6.03
2018-07-12T22:26:15.929Z,8.13
2018-07-12T22:28:47.297Z,5.97
2018-07-12T22:31:16.966Z,6.63
2018-07-12T22:33:46.385Z,7.37
2018-07-12T22:36:16.801Z,6.30
2018-07-12T22:38:46.187Z,7.00
2018-07-12T22:41:15.459Z,6.90
2018-07-12T22:43:44.753Z,8.17
2018-07-12T22:46:14.099Z,6.53
2018-07-12T22:48:43.559Z,7.10
2018-07-12T22:51:12.739Z,7.40
2018-07-12T22:53:42.055Z,6.80
2018-07-12T22:56:11.371Z,6.90
2018-07-12T22:58:40.660Z,6.37
2018-07-12T23:01:09.969Z,6.53
2018-07-12T23:03:39.228Z,6.40
2018-07-12T23:06:08.492Z,6.70
2018-07-12T23:08:37.826Z,6.20
2018-07-12T23:11:07.216Z,6.77
2018-07-12T23:13:36.472Z,6.90
2018-07-12T23:16:05.853Z,6.93
2018-07-12T23:18:35.157Z,5.90
2018-07-12T23:21:04.488Z,6.73
2018-07-12T23:23:33.768Z,7.33
2018-07-12T23:26:03.107Z,7.23
2018-07-12T23:28:32.399Z,6.77
2018-07-12T23:31:01.691Z,6.67
2018-07-12T23:33:30.960Z,6.83
2018-07-12T23:36:00.230Z,6.40
2018-07-12T23:38:29.459Z,7.30
2018-07-12T23:40:58.710Z,7.17
2018-07-12T23:43:28.042Z,6.70
2018-07-12T23:45:57.332Z,7.23
2018-07-12T23:48:26.627Z,7.37
2018-07-12T23:50:55.924Z,8.60
2018-07-12T23:53:25.178Z,7.60
2018-07-12T23:55:54.646Z,8.10
2018-07-12T23:58:23.948Z,7.73
